createdAt,value
2023-03-07T00:00:35.380Z,-0.51
2023-03-07T00:03:01.736Z,-0.50
2023-03-07T00:05:28.126Z,-0.23
2023-03-07T00:07:54.489Z,-0.41
2023-03-07T00:10:20.876Z,-0.41
2023-03-07T00:12:47.213Z,-0.42
2023-03-07T00:15:13.530Z,-0.56
2023-03-07T00:17:40.052Z,-0.58
2023-03-07T00:20:07.556Z,-0.29
2023-03-07T00:22:34.481Z,-0.45
2023-03-07T00:25:00.795Z,-0.45
2023-03-07T00:27:27.488Z,-0.37
2023-03-07T00:29:53.849Z,-0.36
2023-03-07T00:32:20.287Z,-0.67
2023-03-07T00:34:46.621Z,-0.63
2023-03-07T00:37:13.747Z,-0.43
2023-03-07T00:39:40.056Z,-0.38
2023-03-07T00:42:06.372Z,-0.48
2023-03-07T00:44:32.791Z,-0.41
2023-03-07T00:46:59.397Z,-0.55
2023-03-07T00:49:26.283Z,-0.47
2023-03-07T00:51:52.768Z,-0.54
2023-03-07T00:54:19.098Z,-0.47
2023-03-07T00:56:45.695Z,-0.47
2023-03-07T00:59:12.392Z,-0.54
2023-03-07T01:01:38.718Z,-0.51
2023-03-07T01:04:05.154Z,-0.37
2023-03-07T01:06:32.250Z,-0.53
2023-03-07T01:08:59.815Z,-0.32
2023-03-07T01:11:27.379Z,-0.57
2023-03-07T01:13:57.442Z,-0.66
2023-03-07T01:16:25.723Z,-0.34
2023-03-07T01:18:53.932Z,-0.37
2023-03-07T01:21:21.997Z,-0.34
2023-03-07T01:23:48.654Z,-0.08
2023-03-07T01:26:16.141Z,-0.09
2023-03-07T01:28:42.454Z,-0.25
2023-03-07T01:31:08.787Z,-0.15
2023-03-07T01:33:35.100Z,0.03
2023-03-07T01:36:01.579Z,0.10
2023-03-07T01:38:28.875Z,0.17
2023-03-07T01:40:55.206Z,-0.05
2023-03-07T01:43:26.141Z,-0.03
2023-03-07T01:46:04.413Z,0.09
2023-03-07T01:48:30.791Z,-0.12
2023-03-07T01:50:57.114Z,0.20
2023-03-07T01:53:23.549Z,0.16
2023-03-07T01:55:50.045Z,-0.01
2023-03-07T01:58:16.406Z,0.24
2023-03-07T02:00:43.244Z,0.16
2023-03-07T02:03:19.745Z,0.20
2023-03-07T02:05:59.649Z,0.07
2023-03-07T02:08:27.570Z,0.18
2023-03-07T02:10:54.235Z,0.18
2023-03-07T02:13:20.631Z,0.40
2023-03-07T02:15:47.181Z,0.17
2023-03-07T02:18:15.956Z,0.19
2023-03-07T02:20:56.790Z,0.22
2023-03-07T02:23:32.720Z,0.40
2023-03-07T02:26:11.024Z,0.45
2023-03-07T02:28:39.799Z,0.42
2023-03-07T02:31:06.725Z,0.49
2023-03-07T02:33:33.210Z,0.52
2023-03-07T02:36:08.057Z,0.29
2023-03-07T02:38:37.907Z,0.60
2023-03-07T02:41:04.649Z,0.56
2023-03-07T02:43:30.935Z,0.37
2023-03-07T02:45:57.277Z,0.51
2023-03-07T02:48:23.595Z,0.54
2023-03-07T02:50:49.895Z,0.67
2023-03-07T02:53:16.437Z,0.51
2023-03-07T02:55:42.739Z,0.51
2023-03-07T02:58:09.041Z,0.46
2023-03-07T03:00:35.583Z,0.55
2023-03-07T03:03:01.936Z,0.53
2023-03-07T03:05:28.213Z,0.37
2023-03-07T03:07:54.624Z,0.40
2023-03-07T03:10:21.011Z,0.54
2023-03-07T03:12:47.627Z,0.39
2023-03-07T03:15:13.969Z,0.63
2023-03-07T03:17:40.437Z,0.63
2023-03-07T03:20:07.834Z,0.71
2023-03-07T03:22:34.296Z,0.55
2023-03-07T03:25:00.583Z,0.63
2023-03-07T03:27:26.894Z,0.71
2023-03-07T03:29:56.031Z,0.75
2023-03-07T03:32:22.403Z,0.84
2023-03-07T03:34:48.721Z,0.77
2023-03-07T03:37:15.081Z,0.93
2023-03-07T03:39:41.485Z,0.86
2023-03-07T03:42:08.154Z,0.91
2023-03-07T03:44:34.520Z,0.86
2023-03-07T03:47:00.864Z,0.83
2023-03-07T03:49:27.364Z,0.86
2023-03-07T03:51:53.748Z,0.88
2023-03-07T03:54:20.177Z,0.81
2023-03-07T03:56:46.447Z,0.67
2023-03-07T03:59:12.962Z,0.66
2023-03-07T04:01:39.360Z,0.97
2023-03-07T04:04:05.648Z,0.83
2023-03-07T04:06:33.340Z,0.92
2023-03-07T04:09:00.130Z,0.79
2023-03-07T04:11:26.478Z,0.94
2023-03-07T04:13:53.191Z,0.82
2023-03-07T04:16:19.839Z,0.92
2023-03-07T04:18:46.234Z,0.91
2023-03-07T04:21:12.955Z,1.03
2023-03-07T04:23:39.314Z,0.77
2023-03-07T04:26:06.649Z,0.73
2023-03-07T04:28:43.021Z,0.87
2023-03-07T04:31:10.057Z,0.94
2023-03-07T04:33:36.329Z,0.84
2023-03-07T04:36:02.687Z,0.92
2023-03-07T04:38:28.981Z,0.64
2023-03-07T04:40:55.305Z,0.80
2023-03-07T04:43:21.822Z,0.82
2023-03-07T04:45:48.148Z,0.60
2023-03-07T04:48:14.572Z,0.77
2023-03-07T04:50:40.882Z,0.77
2023-03-07T04:53:07.156Z,0.72
2023-03-07T04:55:33.671Z,0.86
2023-03-07T04:58:00.027Z,1.01
2023-03-07T05:00:26.462Z,0.93
2023-03-07T05:02:56.463Z,0.77
2023-03-07T05:05:22.796Z,0.91
2023-03-07T05:07:49.059Z,0.88
2023-03-07T05:10:15.621Z,0.83
2023-03-07T05:12:42.003Z,1.01
2023-03-07T05:15:08.537Z,0.84
2023-03-07T05:17:34.916Z,0.94
2023-03-07T05:20:01.216Z,0.83
2023-03-07T05:22:27.524Z,0.94
2023-03-07T05:24:53.874Z,1.18
2023-03-07T05:27:20.321Z,1.02
2023-03-07T05:29:46.703Z,0.95
2023-03-07T05:32:13.131Z,0.93
2023-03-07T05:34:39.515Z,0.86
2023-03-07T05:37:05.806Z,1.17
2023-03-07T05:39:32.107Z,1.14
2023-03-07T05:41:58.448Z,0.86
2023-03-07T05:44:24.798Z,1.02
2023-03-07T05:46:51.107Z,0.81
2023-03-07T05:49:17.551Z,0.98
2023-03-07T05:51:43.837Z,1.23
2023-03-07T05:54:10.144Z,1.15
2023-03-07T05:56:37.641Z,0.80
2023-03-07T05:59:07.500Z,1.03
2023-03-07T06:01:34.223Z,1.05
2023-03-07T06:04:00.563Z,1.41
2023-03-07T06:06:26.941Z,1.09
2023-03-07T06:08:53.291Z,1.41
2023-03-07T06:11:19.603Z,1.12
2023-03-07T06:13:45.885Z,1.19
2023-03-07T06:16:12.376Z,1.44
2023-03-07T06:18:38.751Z,1.45
2023-03-07T06:21:06.124Z,1.31
2023-03-07T06:23:34.030Z,1.50
2023-03-07T06:26:01.011Z,1.39
2023-03-07T06:28:27.707Z,1.60
2023-03-07T06:30:54.360Z,1.28
2023-03-07T06:33:21.218Z,1.38
2023-03-07T06:35:47.549Z,1.30
2023-03-07T06:38:15.040Z,1.45
2023-03-07T06:40:41.433Z,1.55
2023-03-07T06:43:07.792Z,1.50
2023-03-07T06:45:34.148Z,1.43
2023-03-07T06:48:00.468Z,1.64
2023-03-07T06:50:35.138Z,1.32
2023-03-07T06:53:02.092Z,1.41
2023-03-07T06:55:28.394Z,1.67
2023-03-07T06:57:55.036Z,1.66
2023-03-07T07:00:22.605Z,1.64
2023-03-07T07:02:49.856Z,1.49
2023-03-07T07:05:16.426Z,1.56
2023-03-07T07:07:42.747Z,1.63
2023-03-07T07:10:10.014Z,1.55
2023-03-07T07:12:36.374Z,1.65
2023-03-07T07:15:05.432Z,1.82
2023-03-07T07:17:32.138Z,1.82
2023-03-07T07:19:58.453Z,1.69
2023-03-07T07:22:24.833Z,1.72
2023-03-07T07:24:51.152Z,2.01
2023-03-07T07:27:17.482Z,1.83
2023-03-07T07:29:43.869Z,1.77
2023-03-07T07:32:10.386Z,1.84
2023-03-07T07:34:36.735Z,1.95
2023-03-07T07:37:03.152Z,1.95
2023-03-07T07:39:29.587Z,2.05
2023-03-07T07:41:55.978Z,2.20
2023-03-07T07:44:22.304Z,2.10
2023-03-07T07:46:48.605Z,1.95
2023-03-07T07:49:17.688Z,2.10
2023-03-07T07:51:44.910Z,2.00
2023-03-07T07:54:11.189Z,2.42
2023-03-07T07:56:37.537Z,2.26
2023-03-07T07:59:03.920Z,2.49
2023-03-07T08:01:30.220Z,2.73
2023-03-07T08:03:56.539Z,2.58
2023-03-07T08:06:24.581Z,2.66
2023-03-07T08:08:51.007Z,2.63
2023-03-07T08:11:17.556Z,2.75
2023-03-07T08:13:43.873Z,2.68
2023-03-07T08:16:10.266Z,2.68
2023-03-07T08:18:36.650Z,2.71
2023-03-07T08:21:03.017Z,2.44
2023-03-07T08:23:29.452Z,2.68
2023-03-07T08:25:55.776Z,2.73
2023-03-07T08:28:22.152Z,2.55
2023-03-07T08:30:48.525Z,2.63
2023-03-07T08:33:15.188Z,2.78
2023-03-07T08:35:41.533Z,2.62
2023-03-07T08:38:08.863Z,2.63
2023-03-07T08:40:35.173Z,2.91
2023-03-07T08:43:01.531Z,2.93
2023-03-07T08:45:27.872Z,2.92
2023-03-07T08:47:55.127Z,3.01
2023-03-07T08:50:22.972Z,2.97
2023-03-07T08:52:49.665Z,2.90
2023-03-07T08:55:16.810Z,3.11
2023-03-07T08:57:43.265Z,3.08
2023-03-07T09:00:10.308Z,3.10
2023-03-07T09:02:36.616Z,3.33
2023-03-07T09:05:03.152Z,3.66
2023-03-07T09:07:29.562Z,3.41
2023-03-07T09:09:55.865Z,3.62
2023-03-07T09:12:22.261Z,3.23
2023-03-07T09:14:48.539Z,3.55
2023-03-07T09:17:14.912Z,3.30
2023-03-07T09:19:42.399Z,3.43
2023-03-07T09:22:08.712Z,3.33
2023-03-07T09:24:35.109Z,3.31
2023-03-07T09:27:01.536Z,3.36
2023-03-07T09:29:27.820Z,3.15
2023-03-07T09:31:54.254Z,3.20
2023-03-07T09:34:20.648Z,3.14
2023-03-07T09:36:46.955Z,3.24
2023-03-07T09:39:14.662Z,3.33
2023-03-07T09:42:04.904Z,3.44
2023-03-07T09:44:40.916Z,3.60
2023-03-07T09:47:13.359Z,3.62
2023-03-07T09:49:44.469Z,3.60
2023-03-07T09:52:14.445Z,3.62
2023-03-07T09:54:43.810Z,3.57
2023-03-07T09:57:19.914Z,3.68
2023-03-07T09:59:47.296Z,3.74
2023-03-07T10:02:13.639Z,3.90
2023-03-07T10:04:46.899Z,3.75
2023-03-07T10:07:14.904Z,3.86
2023-03-07T10:09:41.717Z,4.01
2023-03-07T10:12:08.174Z,4.14
2023-03-07T10:14:40.477Z,4.27
2023-03-07T10:17:16.012Z,4.37
2023-03-07T10:19:48.911Z,4.24
2023-03-07T10:22:27.580Z,3.96
2023-03-07T10:25:01.194Z,3.97
2023-03-07T10:27:29.787Z,4.04
2023-03-07T10:29:57.536Z,4.23
2023-03-07T10:32:30.041Z,4.35
2023-03-07T10:35:17.133Z,4.23
2023-03-07T10:37:52.554Z,4.39
2023-03-07T10:40:34.196Z,4.14
2023-03-07T10:43:00.885Z,4.40
2023-03-07T10:45:32.099Z,4.37
2023-03-07T10:48:06.101Z,4.53
2023-03-07T10:50:38.205Z,4.60
2023-03-07T10:53:09.106Z,4.75
2023-03-07T10:55:37.216Z,4.75
2023-03-07T10:58:22.152Z,4.49
2023-03-07T11:01:02.451Z,4.58
2023-03-07T11:03:42.511Z,4.76
2023-03-07T11:06:26.188Z,4.47
2023-03-07T11:08:52.545Z,4.41
2023-03-07T11:11:31.983Z,4.53
2023-03-07T11:14:09.275Z,4.52
2023-03-07T11:16:54.216Z,4.63
2023-03-07T11:19:39.464Z,4.38
2023-03-07T11:22:17.993Z,4.49
2023-03-07T11:24:52.702Z,4.52
2023-03-07T11:27:23.513Z,4.33
2023-03-07T11:30:06.535Z,4.34
2023-03-07T11:32:33.904Z,4.41
2023-03-07T11:35:05.314Z,4.44
2023-03-07T11:37:47.929Z,4.42
2023-03-07T11:40:23.512Z,4.44
2023-03-07T11:42:52.645Z,4.06
2023-03-07T11:45:18.903Z,3.81
2023-03-07T11:48:04.039Z,3.81
2023-03-07T11:50:32.282Z,3.61
2023-03-07T11:53:01.630Z,3.32
2023-03-07T11:55:43.351Z,3.66
2023-03-07T11:58:24.981Z,3.58
2023-03-07T12:01:14.632Z,3.60
2023-03-07T12:03:51.927Z,3.64
2023-03-07T12:06:21.266Z,3.31
2023-03-07T12:08:47.541Z,3.25
2023-03-07T12:11:24.687Z,3.56
2023-03-07T12:13:54.488Z,3.37
2023-03-07T12:16:27.491Z,3.28
2023-03-07T12:19:03.877Z,3.37
2023-03-07T12:21:36.080Z,3.36
2023-03-07T12:24:11.954Z,3.24
2023-03-07T12:26:56.894Z,3.26
2023-03-07T12:29:23.167Z,3.00
2023-03-07T12:31:53.107Z,3.19
2023-03-07T12:34:28.396Z,3.24
2023-03-07T12:37:00.905Z,3.46
2023-03-07T12:39:27.221Z,3.21
2023-03-07T12:42:02.789Z,3.49
2023-03-07T12:44:29.108Z,3.57
2023-03-07T12:47:10.431Z,3.71
2023-03-07T12:49:49.663Z,3.67
2023-03-07T12:52:22.264Z,3.41
2023-03-07T12:55:11.838Z,3.65
2023-03-07T12:57:43.597Z,3.47
2023-03-07T13:00:13.001Z,3.70
2023-03-07T13:02:43.271Z,3.66
2023-03-07T13:05:17.776Z,3.88
2023-03-07T13:07:44.540Z,3.71
2023-03-07T13:10:14.690Z,3.96
2023-03-07T13:12:41.022Z,3.90
2023-03-07T13:15:27.722Z,3.88
2023-03-07T13:17:54.094Z,4.12
2023-03-07T13:20:29.475Z,3.85
2023-03-07T13:22:57.810Z,4.03
2023-03-07T13:25:27.772Z,4.16
2023-03-07T13:27:54.228Z,4.14
2023-03-07T13:30:27.003Z,4.06
2023-03-07T13:32:56.467Z,3.92
2023-03-07T13:35:22.766Z,3.87
2023-03-07T13:37:49.398Z,3.93
2023-03-07T13:40:34.617Z,4.19
2023-03-07T13:43:01.618Z,3.90
2023-03-07T13:45:40.090Z,4.03
2023-03-07T13:48:06.517Z,4.11
2023-03-07T13:50:35.560Z,4.10
2023-03-07T13:53:13.573Z,3.97
2023-03-07T13:55:41.465Z,4.01
2023-03-07T13:58:26.647Z,3.96
2023-03-07T14:00:59.142Z,3.79
2023-03-07T14:03:28.439Z,3.44
2023-03-07T14:05:56.372Z,3.33
2023-03-07T14:08:24.095Z,3.44
2023-03-07T14:10:50.792Z,3.36
2023-03-07T14:13:24.638Z,3.12
2023-03-07T14:15:57.136Z,2.89
2023-03-07T14:18:41.998Z,2.90
2023-03-07T14:21:25.983Z,2.91
2023-03-07T14:23:55.327Z,2.89
2023-03-07T14:26:26.086Z,2.90
2023-03-07T14:29:02.623Z,2.99
2023-03-07T14:31:30.798Z,2.89
2023-03-07T14:33:57.385Z,2.82
2023-03-07T14:36:25.277Z,2.98
2023-03-07T14:38:55.073Z,3.03
2023-03-07T14:41:37.759Z,3.27
2023-03-07T14:44:22.870Z,3.16
2023-03-07T14:46:59.788Z,3.26
2023-03-07T14:49:37.669Z,3.26
2023-03-07T14:52:04.827Z,3.24
2023-03-07T14:54:33.000Z,3.23
2023-03-07T14:57:00.520Z,3.31
2023-03-07T14:59:29.431Z,3.12
2023-03-07T15:01:56.778Z,3.20
2023-03-07T15:04:30.021Z,3.17
2023-03-07T15:07:01.154Z,3.07
2023-03-07T15:09:28.140Z,3.28
2023-03-07T15:11:54.414Z,3.32
2023-03-07T15:14:24.899Z,3.32
2023-03-07T15:16:53.052Z,2.96
2023-03-07T15:19:20.425Z,3.06
2023-03-07T15:21:48.276Z,3.05
2023-03-07T15:24:19.489Z,2.52
2023-03-07T15:26:50.435Z,2.84
2023-03-07T15:29:16.912Z,2.80
2023-03-07T15:31:55.404Z,2.59
2023-03-07T15:34:42.966Z,2.33
2023-03-07T15:37:26.578Z,2.63
2023-03-07T15:39:57.581Z,2.61
2023-03-07T15:42:24.008Z,2.53
2023-03-07T15:44:58.468Z,2.72
2023-03-07T15:47:25.289Z,2.74
2023-03-07T15:49:56.550Z,2.63
2023-03-07T15:52:28.243Z,2.56
2023-03-07T15:54:56.102Z,2.74
2023-03-07T15:57:24.736Z,2.69
2023-03-07T15:59:56.932Z,2.48
2023-03-07T16:02:32.378Z,2.72
2023-03-07T16:05:03.540Z,2.88
2023-03-07T16:07:29.908Z,2.72
2023-03-07T16:09:56.280Z,2.59
2023-03-07T16:12:24.104Z,2.82
2023-03-07T16:14:51.843Z,2.62
2023-03-07T16:17:26.974Z,2.47
2023-03-07T16:19:53.878Z,2.63
2023-03-07T16:22:20.316Z,2.50
2023-03-07T16:24:46.730Z,2.68
2023-03-07T16:27:23.027Z,2.61
2023-03-07T16:29:50.048Z,2.61
2023-03-07T16:32:17.888Z,2.51
2023-03-07T16:34:44.651Z,2.28
2023-03-07T16:37:11.410Z,2.31
2023-03-07T16:39:37.965Z,2.43
2023-03-07T16:42:04.376Z,2.33
2023-03-07T16:44:30.871Z,2.34
2023-03-07T16:47:08.539Z,2.35
2023-03-07T16:49:35.307Z,1.97
2023-03-07T16:52:06.175Z,1.89
2023-03-07T16:54:33.108Z,2.02
2023-03-07T16:57:01.227Z,2.22
2023-03-07T16:59:34.480Z,2.21
2023-03-07T17:02:01.193Z,2.16
2023-03-07T17:04:27.490Z,2.02
2023-03-07T17:07:04.171Z,1.95
2023-03-07T17:09:30.869Z,2.10
2023-03-07T17:11:57.249Z,2.22
2023-03-07T17:14:23.647Z,2.17
2023-03-07T17:16:50.281Z,2.19
2023-03-07T17:19:23.474Z,1.96
2023-03-07T17:21:49.825Z,2.02
2023-03-07T17:24:16.242Z,1.99
2023-03-07T17:26:43.439Z,1.91
2023-03-07T17:29:13.173Z,2.04
2023-03-07T17:31:42.057Z,2.04
2023-03-07T17:34:13.515Z,1.98
2023-03-07T17:36:39.865Z,2.13
2023-03-07T17:39:07.859Z,2.03
2023-03-07T17:41:35.667Z,2.01
2023-03-07T17:44:01.954Z,1.72
2023-03-07T17:46:28.288Z,2.09
2023-03-07T17:48:54.696Z,1.79
2023-03-07T17:51:21.165Z,1.94
2023-03-07T17:53:47.507Z,1.95
2023-03-07T17:56:14.529Z,1.88
2023-03-07T17:58:40.937Z,2.11
2023-03-07T18:01:08.392Z,1.98
2023-03-07T18:03:35.338Z,1.86
2023-03-07T18:06:01.666Z,1.76
2023-03-07T18:08:28.689Z,1.87
2023-03-07T18:10:55.049Z,1.81
2023-03-07T18:13:24.125Z,1.74
2023-03-07T18:15:50.469Z,1.79
2023-03-07T18:18:16.817Z,1.63
2023-03-07T18:20:43.136Z,1.61
2023-03-07T18:23:09.521Z,1.64
2023-03-07T18:25:35.846Z,1.74
2023-03-07T18:28:02.421Z,1.60
2023-03-07T18:30:29.193Z,1.69
2023-03-07T18:32:55.591Z,1.52
2023-03-07T18:35:23.362Z,1.46
2023-03-07T18:37:49.785Z,1.53
2023-03-07T18:40:16.509Z,1.62
2023-03-07T18:42:42.988Z,1.57
2023-03-07T18:45:09.759Z,1.69
2023-03-07T18:47:36.168Z,1.56
2023-03-07T18:50:02.555Z,1.55
2023-03-07T18:52:28.895Z,1.44
2023-03-07T18:54:55.245Z,1.70
2023-03-07T18:57:21.540Z,1.62
2023-03-07T18:59:47.904Z,1.75
2023-03-07T19:02:14.324Z,1.62
2023-03-07T19:04:40.702Z,1.54
2023-03-07T19:07:07.117Z,1.55
2023-03-07T19:09:33.452Z,1.51
2023-03-07T19:11:59.805Z,1.81
2023-03-07T19:14:26.406Z,1.52
2023-03-07T19:16:52.921Z,1.59
2023-03-07T19:19:19.353Z,1.75
2023-03-07T19:21:45.690Z,1.62
2023-03-07T19:24:12.059Z,1.59
2023-03-07T19:26:40.872Z,1.65
2023-03-07T19:29:09.575Z,1.86
2023-03-07T19:31:35.925Z,1.84
2023-03-07T19:34:03.262Z,2.06
2023-03-07T19:36:31.752Z,1.77
2023-03-07T19:39:01.196Z,1.67
2023-03-07T19:41:28.575Z,1.74
2023-03-07T19:43:55.626Z,1.61
2023-03-07T19:46:22.176Z,1.58
2023-03-07T19:48:49.053Z,1.48
2023-03-07T19:51:16.771Z,1.50
2023-03-07T19:53:44.276Z,1.49
2023-03-07T19:56:29.856Z,1.45
2023-03-07T19:58:56.888Z,1.70
2023-03-07T20:01:23.527Z,1.55
2023-03-07T20:03:50.968Z,1.55
2023-03-07T20:06:19.941Z,1.41
2023-03-07T20:08:50.755Z,1.41
2023-03-07T20:11:21.305Z,1.31
2023-03-07T20:13:48.292Z,1.27
2023-03-07T20:16:15.766Z,1.38
2023-03-07T20:18:42.305Z,1.35
2023-03-07T20:21:10.980Z,1.29
2023-03-07T20:23:37.335Z,1.40
2023-03-07T20:26:07.908Z,1.41
2023-03-07T20:28:34.337Z,1.51
2023-03-07T20:31:02.059Z,1.39
2023-03-07T20:33:29.128Z,1.27
2023-03-07T20:35:59.438Z,1.09
2023-03-07T20:38:26.025Z,1.13
2023-03-07T20:41:02.419Z,1.28
2023-03-07T20:43:29.867Z,1.01
2023-03-07T20:45:56.218Z,1.17
2023-03-07T20:48:23.233Z,1.25
2023-03-07T20:50:50.148Z,1.35
2023-03-07T20:53:16.577Z,1.23
2023-03-07T20:55:42.942Z,1.28
2023-03-07T20:58:09.473Z,1.47
2023-03-07T21:00:35.891Z,1.54
2023-03-07T21:03:06.001Z,1.37
2023-03-07T21:05:32.741Z,1.39
2023-03-07T21:07:59.164Z,1.26
2023-03-07T21:10:25.494Z,1.24
2023-03-07T21:12:53.310Z,0.97
2023-03-07T21:15:19.996Z,1.35
2023-03-07T21:17:46.472Z,1.02
2023-03-07T21:20:13.090Z,1.12
2023-03-07T21:22:40.531Z,1.39
2023-03-07T21:25:07.176Z,1.22
2023-03-07T21:27:33.472Z,1.11
2023-03-07T21:29:59.783Z,1.10
2023-03-07T21:32:26.153Z,1.14
2023-03-07T21:34:53.071Z,1.12
2023-03-07T21:37:20.715Z,1.32
2023-03-07T21:39:47.107Z,1.21
2023-03-07T21:42:13.525Z,1.02
2023-03-07T21:44:39.912Z,1.29
2023-03-07T21:47:06.294Z,1.26
2023-03-07T21:49:32.732Z,1.09
2023-03-07T21:51:59.086Z,1.12
2023-03-07T21:54:25.477Z,0.82
2023-03-07T21:56:51.820Z,0.89
2023-03-07T21:59:18.303Z,0.96
2023-03-07T22:01:44.765Z,1.03
2023-03-07T22:04:11.114Z,0.89
2023-03-07T22:06:37.572Z,0.75
2023-03-07T22:09:04.607Z,0.99
2023-03-07T22:11:30.896Z,0.90
2023-03-07T22:13:57.309Z,0.63
2023-03-07T22:16:23.693Z,0.77
2023-03-07T22:18:53.880Z,0.83
2023-03-07T22:21:21.155Z,0.69
2023-03-07T22:23:47.536Z,0.86
2023-03-07T22:26:13.883Z,0.85
2023-03-07T22:28:41.023Z,0.74
2023-03-07T22:31:08.944Z,0.48
2023-03-07T22:33:35.670Z,0.76
2023-03-07T22:36:04.082Z,0.76
2023-03-07T22:38:30.678Z,0.66
2023-03-07T22:43:26.880Z,0.59
2023-03-07T22:45:53.299Z,0.54
2023-03-07T22:48:19.722Z,0.50
2023-03-07T22:50:46.082Z,0.78
2023-03-07T22:53:13.170Z,0.58
2023-03-07T22:55:40.849Z,0.72
2023-03-07T22:58:07.155Z,0.82
2023-03-07T23:00:33.506Z,0.62
2023-03-07T23:02:59.823Z,0.81
2023-03-07T23:05:26.342Z,0.75
2023-03-07T23:07:52.696Z,0.78
2023-03-07T23:10:19.054Z,0.79
2023-03-07T23:12:48.722Z,0.63
2023-03-07T23:15:15.120Z,0.56
2023-03-07T23:17:41.487Z,0.63
2023-03-07T23:20:08.751Z,0.72
2023-03-07T23:22:35.080Z,0.65
2023-03-07T23:25:01.354Z,0.80
2023-03-07T23:27:27.728Z,0.83
2023-03-07T23:29:54.010Z,0.72
2023-03-07T23:32:20.332Z,0.75
2023-03-07T23:34:46.703Z,0.42
2023-03-07T23:37:12.986Z,0.59
2023-03-07T23:39:39.311Z,0.38
2023-03-07T23:42:05.667Z,0.35
2023-03-07T23:44:32.035Z,0.56
2023-03-07T23:46:58.323Z,0.35
2023-03-07T23:49:24.631Z,0.21
2023-03-07T23:51:50.938Z,0.02
2023-03-07T23:54:17.236Z,0.08
2023-03-07T23:56:43.513Z,-0.00
2023-03-07T23:59:09.872Z,0.16
